Airfield :
LOGIN :

Register | Disclaimer

   EN    FR    IT 

 










Legend :    VFR   Marginal VFR   IFR   Intensive IFR   Very Intensive IFR
Visi :
Ceiling :
>= 8 km
>= 3000ft
5 to 8 km
1000 to 3000 ft
1500m to 5 km
500 to 1000 ft
800 to 1500m
200 to 500 ft
< 800m
< 200 ft
Symbols :   Thunderstorms  Fog  Heavy snow  Heavy precipitations  Wind > 20 kt
SIGMETs :     Misc.  Thunderstorms  Icing  Turbulence  Mountain Waves  Volcanic Ashes






- Airport Elevation : 242 ft
- IATA code : DUB


EIDW - Dublin

CURRENT METAR :
  • 132200Z VRB03KT 9999 FEW030 SCT250 08/06 Q1005 NOSIG

EXPIRED METARs :
  • 132130Z VRB03KT 9999 FEW030 08/06 Q1005 NOSIG
  • 132100Z 25004KT 9999 FEW030 07/06 Q1005 NOSIG
  • 132030Z VRB03KT 9999 FEW030 08/06 Q1005 NOSIG
  • 132000Z 29005KT 230V320 9999 FEW020 07/06 Q1005 NOSIG
  • 131930Z 22005KT 190V250 9999 FEW020 09/06 Q1004 NOSIG
  • 131900Z 22005KT 190V250 9999 FEW020 09/06 Q1004 NOSIG

TAF TAF EIDW
Valid from the 13 at 18:00 until the 14 at 18:00 UTC


131700Z 1318/1418 20006KT 9999 FEW018 SCT030
TEMPO 1318/1319 -SHRA SCT018CB
BECMG 1319/1321 VRB03KT
PROB30
TEMPO 1400/1402 5000 BR
PROB40
TEMPO 1402/1406 3000 BR
BECMG 1404/1406 05005KT
BECMG 1406/1408 11010KT
TEMPO 1406/1418 7000 -RA BKN013
PROB30
TEMPO 1407/1411 4000 SHRA BKN008 SCT020CB
BECMG 1408/1410 14012KT
BECMG 1411/1413 14014G25KT
BECMG 1413/1415 14012KT



MET'MAP, your aeronautical weather chart ! - Copyright ORBIFLY December 2007 - Disclaimer

ORBIFLY MET'MAP TEAM :

Programming & Development : Alexandra Zaïnal
Concept & Development : Baudouin d'Aumeries
Co-Development & Prog : Marc-Olivier Méhu
Technical & hardware support : Manuel Goepfert

Contact : metmap@orbifly.com




SOURCES & CREDITS :

   NOAA